sensor_id;sensor_type;location;lat;lon;timestamp;P1;durP1;ratioP1;P2;durP2;ratioP2
55931;SDS011;41837;55.700;37.984;2023-07-16T00:00:35;11.35;;;7.40;;
55931;SDS011;41837;55.700;37.984;2023-07-16T00:03:02;9.45;;;7.78;;
55931;SDS011;41837;55.700;37.984;2023-07-16T00:05:29;13.48;;;7.25;;
55931;SDS011;41837;55.700;37.984;2023-07-16T00:07:55;12.35;;;7.90;;
55931;SDS011;41837;55.700;37.984;2023-07-16T00:10:22;9.98;;;7.50;;
55931;SDS011;41837;55.700;37.984;2023-07-16T00:12:48;10.05;;;7.25;;
55931;SDS011;41837;55.700;37.984;2023-07-16T00:15:14;10.23;;;7.80;;
55931;SDS011;41837;55.700;37.984;2023-07-16T00:17:40;9.98;;;8.02;;
55931;SDS011;41837;55.700;37.984;2023-07-16T00:20:06;10.52;;;7.55;;
55931;SDS011;41837;55.700;37.984;2023-07-16T00:22:33;11.00;;;7.32;;
55931;SDS011;41837;55.700;37.984;2023-07-16T00:24:59;9.73;;;7.13;;
55931;SDS011;41837;55.700;37.984;2023-07-16T00:27:26;13.00;;;7.20;;
55931;SDS011;41837;55.700;37.984;2023-07-16T00:29:52;11.57;;;7.10;;
55931;SDS011;41837;55.700;37.984;2023-07-16T00:32:18;9.50;;;7.25;;
55931;SDS011;41837;55.700;37.984;2023-07-16T00:34:44;14.88;;;8.18;;
55931;SDS011;41837;55.700;37.984;2023-07-16T00:37:11;10.48;;;7.30;;
55931;SDS011;41837;55.700;37.984;2023-07-16T00:39:39;12.30;;;7.38;;
55931;SDS011;41837;55.700;37.984;2023-07-16T00:42:05;11.02;;;7.25;;
55931;SDS011;41837;55.700;37.984;2023-07-16T00:44:32;10.93;;;7.30;;
55931;SDS011;41837;55.700;37.984;2023-07-16T00:46:58;9.70;;;7.63;;
55931;SDS011;41837;55.700;37.984;2023-07-16T00:49:25;9.65;;;8.18;;
55931;SDS011;41837;55.700;37.984;2023-07-16T00:51:52;9.77;;;7.70;;
55931;SDS011;41837;55.700;37.984;2023-07-16T00:54:19;10.43;;;7.82;;
55931;SDS011;41837;55.700;37.984;2023-07-16T00:56:46;10.93;;;8.23;;
55931;SDS011;41837;55.700;37.984;2023-07-16T00:59:13;10.52;;;7.82;;
55931;SDS011;41837;55.700;37.984;2023-07-16T01:01:39;10.85;;;8.02;;
55931;SDS011;41837;55.700;37.984;2023-07-16T01:04:05;11.95;;;8.18;;
55931;SDS011;41837;55.700;37.984;2023-07-16T01:06:39;16.13;;;7.78;;
55931;SDS011;41837;55.700;37.984;2023-07-16T01:09:16;11.85;;;7.50;;
55931;SDS011;41837;55.700;37.984;2023-07-16T01:11:45;14.55;;;8.05;;
55931;SDS011;41837;55.700;37.984;2023-07-16T01:14:13;11.30;;;7.60;;
55931;SDS011;41837;55.700;37.984;2023-07-16T01:16:41;13.15;;;8.00;;
55931;SDS011;41837;55.700;37.984;2023-07-16T01:19:09;17.80;;;7.80;;
55931;SDS011;41837;55.700;37.984;2023-07-16T01:21:54;10.93;;;7.50;;
55931;SDS011;41837;55.700;37.984;2023-07-16T01:30:08;13.70;;;7.85;;
55931;SDS011;41837;55.700;37.984;2023-07-16T01:32:42;10.00;;;7.60;;
55931;SDS011;41837;55.700;37.984;2023-07-16T01:35:09;8.55;;;7.25;;
55931;SDS011;41837;55.700;37.984;2023-07-16T01:37:36;13.90;;;7.70;;
55931;SDS011;41837;55.700;37.984;2023-07-16T01:40:02;12.35;;;7.38;;
55931;SDS011;41837;55.700;37.984;2023-07-16T01:42:29;13.60;;;7.43;;
55931;SDS011;41837;55.700;37.984;2023-07-16T01:44:55;12.43;;;7.35;;
55931;SDS011;41837;55.700;37.984;2023-07-16T01:49:55;11.57;;;7.78;;
55931;SDS011;41837;55.700;37.984;2023-07-16T01:52:21;16.95;;;8.48;;
55931;SDS011;41837;55.700;37.984;2023-07-16T01:54:48;12.55;;;8.07;;
55931;SDS011;41837;55.700;37.984;2023-07-16T01:57:14;15.18;;;7.97;;
55931;SDS011;41837;55.700;37.984;2023-07-16T01:59:40;10.27;;;7.30;;
55931;SDS011;41837;55.700;37.984;2023-07-16T02:02:06;7.97;;;6.25;;
55931;SDS011;41837;55.700;37.984;2023-07-16T02:04:33;10.55;;;7.45;;
55931;SDS011;41837;55.700;37.984;2023-07-16T02:06:59;14.07;;;7.47;;
55931;SDS011;41837;55.700;37.984;2023-07-16T02:09:26;14.20;;;7.47;;
55931;SDS011;41837;55.700;37.984;2023-07-16T02:11:52;11.98;;;7.28;;
55931;SDS011;41837;55.700;37.984;2023-07-16T02:14:18;13.00;;;7.40;;
55931;SDS011;41837;55.700;37.984;2023-07-16T02:16:45;10.55;;;7.80;;
55931;SDS011;41837;55.700;37.984;2023-07-16T02:19:11;14.65;;;7.40;;
55931;SDS011;41837;55.700;37.984;2023-07-16T02:21:42;12.50;;;7.72;;
55931;SDS011;41837;55.700;37.984;2023-07-16T02:24:09;13.77;;;7.50;;
55931;SDS011;41837;55.700;37.984;2023-07-16T02:26:35;15.15;;;7.95;;
55931;SDS011;41837;55.700;37.984;2023-07-16T02:29:02;16.33;;;7.72;;
55931;SDS011;41837;55.700;37.984;2023-07-16T02:31:28;8.50;;;7.55;;
55931;SDS011;41837;55.700;37.984;2023-07-16T02:33:54;12.55;;;7.22;;
55931;SDS011;41837;55.700;37.984;2023-07-16T02:36:20;17.08;;;7.70;;
55931;SDS011;41837;55.700;37.984;2023-07-16T02:38:48;16.52;;;6.60;;
55931;SDS011;41837;55.700;37.984;2023-07-16T02:41:15;12.60;;;6.60;;
55931;SDS011;41837;55.700;37.984;2023-07-16T02:43:41;13.02;;;7.50;;
55931;SDS011;41837;55.700;37.984;2023-07-16T02:46:08;12.18;;;7.20;;
55931;SDS011;41837;55.700;37.984;2023-07-16T02:48:34;14.82;;;7.38;;
55931;SDS011;41837;55.700;37.984;2023-07-16T02:51:01;13.82;;;6.60;;
55931;SDS011;41837;55.700;37.984;2023-07-16T02:53:27;15.65;;;6.25;;
55931;SDS011;41837;55.700;37.984;2023-07-16T02:55:54;9.60;;;6.07;;
55931;SDS011;41837;55.700;37.984;2023-07-16T02:58:20;11.98;;;6.30;;
55931;SDS011;41837;55.700;37.984;2023-07-16T03:00:47;12.48;;;6.63;;
55931;SDS011;41837;55.700;37.984;2023-07-16T03:03:13;14.45;;;5.80;;
55931;SDS011;41837;55.700;37.984;2023-07-16T03:05:40;10.60;;;6.20;;
55931;SDS011;41837;55.700;37.984;2023-07-16T03:08:06;9.60;;;6.50;;
55931;SDS011;41837;55.700;37.984;2023-07-16T03:10:35;10.05;;;5.78;;
55931;SDS011;41837;55.700;37.984;2023-07-16T03:13:03;11.73;;;6.10;;
55931;SDS011;41837;55.700;37.984;2023-07-16T03:15:28;10.02;;;6.05;;
55931;SDS011;41837;55.700;37.984;2023-07-16T03:17:54;11.32;;;5.82;;
55931;SDS011;41837;55.700;37.984;2023-07-16T03:20:21;11.07;;;5.57;;
55931;SDS011;41837;55.700;37.984;2023-07-16T03:22:48;10.90;;;5.55;;
55931;SDS011;41837;55.700;37.984;2023-07-16T03:25:14;18.92;;;6.03;;
55931;SDS011;41837;55.700;37.984;2023-07-16T03:27:40;12.02;;;6.20;;
55931;SDS011;41837;55.700;37.984;2023-07-16T03:30:06;11.60;;;5.78;;
55931;SDS011;41837;55.700;37.984;2023-07-16T03:32:33;9.35;;;5.85;;
55931;SDS011;41837;55.700;37.984;2023-07-16T03:35:00;7.28;;;5.75;;
55931;SDS011;41837;55.700;37.984;2023-07-16T03:37:29;8.13;;;6.40;;
55931;SDS011;41837;55.700;37.984;2023-07-16T03:39:56;9.68;;;5.95;;
55931;SDS011;41837;55.700;37.984;2023-07-16T03:42:22;12.00;;;6.05;;
55931;SDS011;41837;55.700;37.984;2023-07-16T03:44:49;9.82;;;6.00;;
55931;SDS011;41837;55.700;37.984;2023-07-16T03:47:15;8.38;;;6.40;;
55931;SDS011;41837;55.700;37.984;2023-07-16T03:49:42;6.88;;;5.57;;
55931;SDS011;41837;55.700;37.984;2023-07-16T03:52:08;9.73;;;6.00;;
55931;SDS011;41837;55.700;37.984;2023-07-16T03:54:35;9.13;;;6.03;;
55931;SDS011;41837;55.700;37.984;2023-07-16T03:57:01;9.32;;;5.50;;
55931;SDS011;41837;55.700;37.984;2023-07-16T03:59:28;12.82;;;6.07;;
55931;SDS011;41837;55.700;37.984;2023-07-16T04:01:55;9.35;;;5.68;;
55931;SDS011;41837;55.700;37.984;2023-07-16T04:04:21;8.98;;;6.22;;
55931;SDS011;41837;55.700;37.984;2023-07-16T04:06:47;8.23;;;5.68;;
55931;SDS011;41837;55.700;37.984;2023-07-16T04:09:14;10.35;;;6.18;;
55931;SDS011;41837;55.700;37.984;2023-07-16T04:11:40;9.35;;;5.90;;
55931;SDS011;41837;55.700;37.984;2023-07-16T04:14:07;7.47;;;5.65;;
55931;SDS011;41837;55.700;37.984;2023-07-16T04:16:33;8.85;;;5.60;;
55931;SDS011;41837;55.700;37.984;2023-07-16T04:19:00;8.68;;;5.63;;
55931;SDS011;41837;55.700;37.984;2023-07-16T04:21:26;8.23;;;6.13;;
55931;SDS011;41837;55.700;37.984;2023-07-16T04:23:52;10.05;;;5.72;;
55931;SDS011;41837;55.700;37.984;2023-07-16T04:26:18;8.38;;;6.07;;
55931;SDS011;41837;55.700;37.984;2023-07-16T04:28:45;11.60;;;6.25;;
55931;SDS011;41837;55.700;37.984;2023-07-16T04:31:11;8.40;;;5.75;;
55931;SDS011;41837;55.700;37.984;2023-07-16T04:33:37;8.85;;;5.45;;
55931;SDS011;41837;55.700;37.984;2023-07-16T04:36:03;7.78;;;5.70;;
55931;SDS011;41837;55.700;37.984;2023-07-16T04:38:30;10.02;;;5.93;;
55931;SDS011;41837;55.700;37.984;2023-07-16T04:40:56;13.02;;;5.75;;
55931;SDS011;41837;55.700;37.984;2023-07-16T04:43:25;7.15;;;5.25;;
55931;SDS011;41837;55.700;37.984;2023-07-16T04:45:51;9.65;;;5.40;;
55931;SDS011;41837;55.700;37.984;2023-07-16T04:48:17;10.57;;;5.43;;
55931;SDS011;41837;55.700;37.984;2023-07-16T04:50:44;15.63;;;5.80;;
55931;SDS011;41837;55.700;37.984;2023-07-16T04:53:10;11.27;;;5.85;;
55931;SDS011;41837;55.700;37.984;2023-07-16T04:55:37;12.35;;;6.10;;
55931;SDS011;41837;55.700;37.984;2023-07-16T04:58:03;7.28;;;6.05;;
55931;SDS011;41837;55.700;37.984;2023-07-16T05:00:31;7.30;;;5.95;;
55931;SDS011;41837;55.700;37.984;2023-07-16T05:02:58;10.57;;;5.95;;
55931;SDS011;41837;55.700;37.984;2023-07-16T05:05:24;7.28;;;5.97;;
55931;SDS011;41837;55.700;37.984;2023-07-16T05:07:51;10.00;;;6.10;;
55931;SDS011;41837;55.700;37.984;2023-07-16T05:10:17;12.63;;;6.38;;
55931;SDS011;41837;55.700;37.984;2023-07-16T05:12:45;11.18;;;6.18;;
55931;SDS011;41837;55.700;37.984;2023-07-16T05:15:12;10.95;;;6.25;;
55931;SDS011;41837;55.700;37.984;2023-07-16T05:17:38;11.40;;;6.20;;
55931;SDS011;41837;55.700;37.984;2023-07-16T05:20:05;9.27;;;6.05;;
55931;SDS011;41837;55.700;37.984;2023-07-16T05:22:32;7.75;;;5.22;;
55931;SDS011;41837;55.700;37.984;2023-07-16T05:24:58;11.82;;;6.25;;
55931;SDS011;41837;55.700;37.984;2023-07-16T05:27:24;8.90;;;5.70;;
55931;SDS011;41837;55.700;37.984;2023-07-16T05:29:50;9.02;;;5.18;;
55931;SDS011;41837;55.700;37.984;2023-07-16T05:32:17;11.60;;;5.85;;
55931;SDS011;41837;55.700;37.984;2023-07-16T05:34:43;9.10;;;5.60;;
55931;SDS011;41837;55.700;37.984;2023-07-16T05:37:10;5.80;;;4.88;;
55931;SDS011;41837;55.700;37.984;2023-07-16T05:39:36;10.20;;;4.82;;
55931;SDS011;41837;55.700;37.984;2023-07-16T05:42:04;8.27;;;4.85;;
55931;SDS011;41837;55.700;37.984;2023-07-16T05:44:31;9.65;;;4.70;;
55931;SDS011;41837;55.700;37.984;2023-07-16T05:46:57;8.60;;;4.72;;
55931;SDS011;41837;55.700;37.984;2023-07-16T05:49:24;6.80;;;4.47;;
55931;SDS011;41837;55.700;37.984;2023-07-16T05:51:52;11.73;;;4.65;;
55931;SDS011;41837;55.700;37.984;2023-07-16T05:54:19;7.40;;;4.63;;
55931;SDS011;41837;55.700;37.984;2023-07-16T05:56:46;8.90;;;4.30;;
55931;SDS011;41837;55.700;37.984;2023-07-16T05:59:13;8.32;;;4.35;;
55931;SDS011;41837;55.700;37.984;2023-07-16T06:01:39;7.82;;;4.10;;
55931;SDS011;41837;55.700;37.984;2023-07-16T06:04:05;11.75;;;4.55;;
55931;SDS011;41837;55.700;37.984;2023-07-16T06:06:31;13.05;;;4.55;;
55931;SDS011;41837;55.700;37.984;2023-07-16T06:08:57;8.32;;;4.40;;
55931;SDS011;41837;55.700;37.984;2023-07-16T06:11:23;8.15;;;3.80;;
55931;SDS011;41837;55.700;37.984;2023-07-16T06:13:49;8.48;;;4.22;;
55931;SDS011;41837;55.700;37.984;2023-07-16T06:16:19;8.82;;;4.45;;
55931;SDS011;41837;55.700;37.984;2023-07-16T06:18:44;12.68;;;4.05;;
55931;SDS011;41837;55.700;37.984;2023-07-16T06:21:10;6.30;;;4.32;;
55931;SDS011;41837;55.700;37.984;2023-07-16T06:23:37;6.82;;;4.75;;
55931;SDS011;41837;55.700;37.984;2023-07-16T06:26:04;9.90;;;4.40;;
55931;SDS011;41837;55.700;37.984;2023-07-16T06:28:30;7.82;;;4.30;;
55931;SDS011;41837;55.700;37.984;2023-07-16T06:30:56;11.43;;;4.03;;
55931;SDS011;41837;55.700;37.984;2023-07-16T06:33:22;8.52;;;4.55;;
55931;SDS011;41837;55.700;37.984;2023-07-16T06:35:49;6.72;;;4.45;;
55931;SDS011;41837;55.700;37.984;2023-07-16T06:38:15;9.90;;;4.43;;
55931;SDS011;41837;55.700;37.984;2023-07-16T06:40:48;6.25;;;4.30;;
55931;SDS011;41837;55.700;37.984;2023-07-16T06:43:15;5.57;;;4.20;;
55931;SDS011;41837;55.700;37.984;2023-07-16T06:45:42;8.32;;;4.15;;
55931;SDS011;41837;55.700;37.984;2023-07-16T06:48:10;5.88;;;4.53;;
55931;SDS011;41837;55.700;37.984;2023-07-16T06:50:36;7.35;;;4.03;;
55931;SDS011;41837;55.700;37.984;2023-07-16T06:53:02;7.25;;;4.15;;
55931;SDS011;41837;55.700;37.984;2023-07-16T06:55:28;6.47;;;3.95;;
55931;SDS011;41837;55.700;37.984;2023-07-16T06:57:55;8.38;;;4.15;;
55931;SDS011;41837;55.700;37.984;2023-07-16T07:00:21;8.02;;;4.25;;
55931;SDS011;41837;55.700;37.984;2023-07-16T07:02:48;8.13;;;5.18;;
55931;SDS011;41837;55.700;37.984;2023-07-16T07:05:14;7.28;;;4.65;;
55931;SDS011;41837;55.700;37.984;2023-07-16T07:07:40;12.27;;;4.45;;
55931;SDS011;41837;55.700;37.984;2023-07-16T07:10:08;9.13;;;5.28;;
55931;SDS011;41837;55.700;37.984;2023-07-16T07:12:34;8.60;;;4.70;;
55931;SDS011;41837;55.700;37.984;2023-07-16T07:15:05;5.93;;;3.88;;
55931;SDS011;41837;55.700;37.984;2023-07-16T07:17:32;6.20;;;4.00;;
55931;SDS011;41837;55.700;37.984;2023-07-16T07:19:58;7.95;;;4.18;;
55931;SDS011;41837;55.700;37.984;2023-07-16T07:22:25;13.55;;;4.05;;
55931;SDS011;41837;55.700;37.984;2023-07-16T07:24:51;4.57;;;3.22;;
55931;SDS011;41837;55.700;37.984;2023-07-16T07:27:17;9.63;;;4.10;;
55931;SDS011;41837;55.700;37.984;2023-07-16T07:29:43;7.90;;;4.00;;
55931;SDS011;41837;55.700;37.984;2023-07-16T07:32:12;7.60;;;4.25;;
55931;SDS011;41837;55.700;37.984;2023-07-16T07:34:38;6.60;;;4.22;;
55931;SDS011;41837;55.700;37.984;2023-07-16T07:37:05;5.40;;;4.00;;
55931;SDS011;41837;55.700;37.984;2023-07-16T07:39:31;5.25;;;3.70;;
55931;SDS011;41837;55.700;37.984;2023-07-16T07:42:00;8.50;;;3.90;;
55931;SDS011;41837;55.700;37.984;2023-07-16T07:44:26;6.32;;;4.07;;
55931;SDS011;41837;55.700;37.984;2023-07-16T07:46:52;4.82;;;3.80;;
55931;SDS011;41837;55.700;37.984;2023-07-16T07:49:18;8.13;;;4.15;;
55931;SDS011;41837;55.700;37.984;2023-07-16T07:51:44;6.88;;;4.15;;
55931;SDS011;41837;55.700;37.984;2023-07-16T07:54:10;5.95;;;3.78;;
55931;SDS011;41837;55.700;37.984;2023-07-16T07:56:36;4.90;;;3.60;;
55931;SDS011;41837;55.700;37.984;2023-07-16T07:59:03;4.93;;;3.78;;
55931;SDS011;41837;55.700;37.984;2023-07-16T08:01:30;4.95;;;3.75;;
55931;SDS011;41837;55.700;37.984;2023-07-16T08:03:56;5.32;;;3.70;;
55931;SDS011;41837;55.700;37.984;2023-07-16T08:06:22;6.40;;;4.20;;
55931;SDS011;41837;55.700;37.984;2023-07-16T08:08:49;6.78;;;3.97;;
55931;SDS011;41837;55.700;37.984;2023-07-16T08:11:15;5.32;;;3.78;;
55931;SDS011;41837;55.700;37.984;2023-07-16T08:13:41;7.97;;;3.95;;
55931;SDS011;41837;55.700;37.984;2023-07-16T08:16:07;6.32;;;4.68;;
55931;SDS011;41837;55.700;37.984;2023-07-16T08:18:35;5.97;;;3.90;;
55931;SDS011;41837;55.700;37.984;2023-07-16T08:21:01;6.45;;;3.47;;
55931;SDS011;41837;55.700;37.984;2023-07-16T08:23:27;6.00;;;3.63;;
55931;SDS011;41837;55.700;37.984;2023-07-16T08:25:53;6.18;;;3.90;;
55931;SDS011;41837;55.700;37.984;2023-07-16T08:28:19;5.95;;;4.10;;
55931;SDS011;41837;55.700;37.984;2023-07-16T08:30:46;5.22;;;3.70;;
55931;SDS011;41837;55.700;37.984;2023-07-16T08:33:14;5.38;;;3.58;;
55931;SDS011;41837;55.700;37.984;2023-07-16T08:35:41;6.05;;;3.45;;
55931;SDS011;41837;55.700;37.984;2023-07-16T08:38:08;5.70;;;4.07;;
55931;SDS011;41837;55.700;37.984;2023-07-16T08:40:37;5.90;;;3.85;;
55931;SDS011;41837;55.700;37.984;2023-07-16T08:43:07;5.28;;;3.92;;
55931;SDS011;41837;55.700;37.984;2023-07-16T08:45:38;5.10;;;3.70;;
55931;SDS011;41837;55.700;37.984;2023-07-16T08:48:11;4.60;;;3.40;;
55931;SDS011;41837;55.700;37.984;2023-07-16T08:50:37;5.57;;;3.40;;
55931;SDS011;41837;55.700;37.984;2023-07-16T08:53:04;6.88;;;3.85;;
55931;SDS011;41837;55.700;37.984;2023-07-16T08:55:31;5.70;;;3.90;;
55931;SDS011;41837;55.700;37.984;2023-07-16T08:57:59;6.22;;;4.00;;
55931;SDS011;41837;55.700;37.984;2023-07-16T09:00:27;5.88;;;4.07;;
55931;SDS011;41837;55.700;37.984;2023-07-16T09:02:54;4.13;;;3.50;;
55931;SDS011;41837;55.700;37.984;2023-07-16T09:05:21;4.78;;;3.33;;
55931;SDS011;41837;55.700;37.984;2023-07-16T09:07:49;7.20;;;4.28;;
55931;SDS011;41837;55.700;37.984;2023-07-16T09:10:15;5.45;;;4.07;;
55931;SDS011;41837;55.700;37.984;2023-07-16T09:12:45;5.68;;;3.60;;
55931;SDS011;41837;55.700;37.984;2023-07-16T09:15:13;5.50;;;3.50;;
55931;SDS011;41837;55.700;37.984;2023-07-16T09:17:47;4.47;;;3.65;;
55931;SDS011;41837;55.700;37.984;2023-07-16T09:20:15;7.30;;;3.42;;
55931;SDS011;41837;55.700;37.984;2023-07-16T09:22:43;4.75;;;3.67;;
55931;SDS011;41837;55.700;37.984;2023-07-16T09:25:10;6.82;;;3.60;;
55931;SDS011;41837;55.700;37.984;2023-07-16T09:27:37;8.70;;;3.28;;
55931;SDS011;41837;55.700;37.984;2023-07-16T09:30:04;5.07;;;2.70;;
55931;SDS011;41837;55.700;37.984;2023-07-16T09:32:36;5.38;;;3.00;;
55931;SDS011;41837;55.700;37.984;2023-07-16T09:35:12;4.25;;;3.13;;
55931;SDS011;41837;55.700;37.984;2023-07-16T09:37:42;4.82;;;3.08;;
55931;SDS011;41837;55.700;37.984;2023-07-16T09:40:12;5.72;;;3.40;;
55931;SDS011;41837;55.700;37.984;2023-07-16T09:42:39;6.45;;;3.30;;
55931;SDS011;41837;55.700;37.984;2023-07-16T09:45:07;4.85;;;3.50;;
55931;SDS011;41837;55.700;37.984;2023-07-16T09:47:34;7.10;;;3.40;;
55931;SDS011;41837;55.700;37.984;2023-07-16T09:50:02;6.30;;;3.25;;
55931;SDS011;41837;55.700;37.984;2023-07-16T09:52:31;5.90;;;3.30;;
55931;SDS011;41837;55.700;37.984;2023-07-16T09:55:00;4.97;;;3.08;;
55931;SDS011;41837;55.700;37.984;2023-07-16T09:57:34;5.68;;;3.60;;
55931;SDS011;41837;55.700;37.984;2023-07-16T10:00:06;5.85;;;3.17;;
55931;SDS011;41837;55.700;37.984;2023-07-16T10:02:43;9.52;;;3.40;;
55931;SDS011;41837;55.700;37.984;2023-07-16T10:05:18;6.47;;;3.85;;
55931;SDS011;41837;55.700;37.984;2023-07-16T10:07:49;8.23;;;4.32;;
55931;SDS011;41837;55.700;37.984;2023-07-16T10:10:19;5.38;;;3.42;;
55931;SDS011;41837;55.700;37.984;2023-07-16T10:12:56;7.25;;;3.67;;
55931;SDS011;41837;55.700;37.984;2023-07-16T10:15:24;6.35;;;3.78;;
55931;SDS011;41837;55.700;37.984;2023-07-16T10:17:55;6.55;;;3.10;;
55931;SDS011;41837;55.700;37.984;2023-07-16T10:20:35;3.90;;;3.20;;
55931;SDS011;41837;55.700;37.984;2023-07-16T10:23:15;4.43;;;2.90;;
55931;SDS011;41837;55.700;37.984;2023-07-16T10:26:01;5.35;;;3.17;;
55931;SDS011;41837;55.700;37.984;2023-07-16T10:28:35;5.25;;;3.55;;
55931;SDS011;41837;55.700;37.984;2023-07-16T10:31:01;4.32;;;3.35;;
55931;SDS011;41837;55.700;37.984;2023-07-16T10:33:28;9.35;;;3.45;;
55931;SDS011;41837;55.700;37.984;2023-07-16T10:35:56;4.95;;;3.35;;
55931;SDS011;41837;55.700;37.984;2023-07-16T10:38:26;4.00;;;3.10;;
55931;SDS011;41837;55.700;37.984;2023-07-16T10:40:52;6.88;;;3.53;;
55931;SDS011;41837;55.700;37.984;2023-07-16T10:43:19;4.50;;;3.17;;
55931;SDS011;41837;55.700;37.984;2023-07-16T10:45:46;4.72;;;3.58;;
55931;SDS011;41837;55.700;37.984;2023-07-16T10:48:13;6.57;;;3.70;;
55931;SDS011;41837;55.700;37.984;2023-07-16T10:50:39;6.47;;;3.40;;
55931;SDS011;41837;55.700;37.984;2023-07-16T10:53:05;6.80;;;3.20;;
55931;SDS011;41837;55.700;37.984;2023-07-16T10:55:32;5.50;;;3.80;;
55931;SDS011;41837;55.700;37.984;2023-07-16T10:58:04;4.68;;;3.35;;
55931;SDS011;41837;55.700;37.984;2023-07-16T11:00:36;6.25;;;3.45;;
55931;SDS011;41837;55.700;37.984;2023-07-16T11:03:03;5.43;;;2.97;;
55931;SDS011;41837;55.700;37.984;2023-07-16T11:05:30;6.72;;;3.50;;
55931;SDS011;41837;55.700;37.984;2023-07-16T11:07:56;5.18;;;3.72;;
55931;SDS011;41837;55.700;37.984;2023-07-16T11:10:23;4.43;;;3.85;;
55931;SDS011;41837;55.700;37.984;2023-07-16T11:12:51;10.55;;;4.63;;
55931;SDS011;41837;55.700;37.984;2023-07-16T11:15:40;6.88;;;4.15;;
55931;SDS011;41837;55.700;37.984;2023-07-16T11:18:06;9.75;;;3.92;;
55931;SDS011;41837;55.700;37.984;2023-07-16T11:20:33;8.68;;;5.40;;
55931;SDS011;41837;55.700;37.984;2023-07-16T11:23:00;8.80;;;4.35;;
55931;SDS011;41837;55.700;37.984;2023-07-16T11:25:28;8.23;;;4.47;;
55931;SDS011;41837;55.700;37.984;2023-07-16T11:27:54;5.35;;;3.85;;
55931;SDS011;41837;55.700;37.984;2023-07-16T11:30:22;6.97;;;3.53;;
55931;SDS011;41837;55.700;37.984;2023-07-16T11:32:49;5.75;;;3.25;;
55931;SDS011;41837;55.700;37.984;2023-07-16T11:35:18;7.47;;;3.70;;
55931;SDS011;41837;55.700;37.984;2023-07-16T11:37:46;7.90;;;4.18;;
55931;SDS011;41837;55.700;37.984;2023-07-16T11:40:17;6.22;;;4.25;;
55931;SDS011;41837;55.700;37.984;2023-07-16T11:42:46;5.75;;;3.83;;
55931;SDS011;41837;55.700;37.984;2023-07-16T11:45:20;6.15;;;4.43;;
55931;SDS011;41837;55.700;37.984;2023-07-16T11:47:59;7.97;;;5.32;;
55931;SDS011;41837;55.700;37.984;2023-07-16T11:50:25;6.22;;;4.00;;
55931;SDS011;41837;55.700;37.984;2023-07-16T11:52:52;7.85;;;4.93;;
55931;SDS011;41837;55.700;37.984;2023-07-16T11:55:20;6.40;;;4.15;;
55931;SDS011;41837;55.700;37.984;2023-07-16T11:57:46;5.22;;;4.18;;
55931;SDS011;41837;55.700;37.984;2023-07-16T12:00:12;8.27;;;3.78;;
55931;SDS011;41837;55.700;37.984;2023-07-16T12:02:39;7.22;;;3.97;;
55931;SDS011;41837;55.700;37.984;2023-07-16T12:05:05;5.93;;;3.80;;
55931;SDS011;41837;55.700;37.984;2023-07-16T12:07:36;3.97;;;3.38;;
55931;SDS011;41837;55.700;37.984;2023-07-16T12:10:04;7.88;;;3.60;;
55931;SDS011;41837;55.700;37.984;2023-07-16T12:12:34;5.60;;;3.55;;
55931;SDS011;41837;55.700;37.984;2023-07-16T12:15:06;5.03;;;3.60;;
55931;SDS011;41837;55.700;37.984;2023-07-16T12:17:34;6.53;;;3.88;;
55931;SDS011;41837;55.700;37.984;2023-07-16T12:20:00;5.05;;;3.58;;
55931;SDS011;41837;55.700;37.984;2023-07-16T12:22:31;5.07;;;3.80;;
55931;SDS011;41837;55.700;37.984;2023-07-16T12:24:58;7.97;;;3.75;;
55931;SDS011;41837;55.700;37.984;2023-07-16T12:27:25;4.32;;;3.30;;
55931;SDS011;41837;55.700;37.984;2023-07-16T12:29:52;5.13;;;2.80;;
55931;SDS011;41837;55.700;37.984;2023-07-16T12:32:18;6.03;;;3.28;;
55931;SDS011;41837;55.700;37.984;2023-07-16T12:34:46;3.08;;;2.60;;
55931;SDS011;41837;55.700;37.984;2023-07-16T12:37:12;4.55;;;2.88;;
55931;SDS011;41837;55.700;37.984;2023-07-16T12:39:38;6.03;;;3.10;;
55931;SDS011;41837;55.700;37.984;2023-07-16T12:42:05;5.38;;;2.80;;
55931;SDS011;41837;55.700;37.984;2023-07-16T12:44:32;7.72;;;3.28;;
55931;SDS011;41837;55.700;37.984;2023-07-16T12:46:57;4.50;;;3.08;;
55931;SDS011;41837;55.700;37.984;2023-07-16T12:49:24;6.25;;;2.88;;
55931;SDS011;41837;55.700;37.984;2023-07-16T12:51:50;5.20;;;3.55;;
55931;SDS011;41837;55.700;37.984;2023-07-16T12:54:16;5.80;;;3.65;;
55931;SDS011;41837;55.700;37.984;2023-07-16T12:56:43;5.88;;;3.80;;
55931;SDS011;41837;55.700;37.984;2023-07-16T12:59:09;6.60;;;3.67;;
55931;SDS011;41837;55.700;37.984;2023-07-16T13:01:36;5.53;;;4.00;;
55931;SDS011;41837;55.700;37.984;2023-07-16T13:04:02;4.15;;;3.33;;
55931;SDS011;41837;55.700;37.984;2023-07-16T13:06:29;8.18;;;3.45;;
55931;SDS011;41837;55.700;37.984;2023-07-16T13:08:55;4.40;;;3.08;;
55931;SDS011;41837;55.700;37.984;2023-07-16T13:11:24;5.40;;;3.75;;
55931;SDS011;41837;55.700;37.984;2023-07-16T13:13:51;6.35;;;3.60;;
55931;SDS011;41837;55.700;37.984;2023-07-16T13:16:17;4.80;;;2.95;;
55931;SDS011;41837;55.700;37.984;2023-07-16T13:18:43;3.78;;;3.00;;
55931;SDS011;41837;55.700;37.984;2023-07-16T13:21:09;3.53;;;2.92;;
55931;SDS011;41837;55.700;37.984;2023-07-16T13:23:35;4.45;;;3.03;;
55931;SDS011;41837;55.700;37.984;2023-07-16T13:26:02;5.70;;;3.05;;
55931;SDS011;41837;55.700;37.984;2023-07-16T13:28:28;6.85;;;3.35;;
55931;SDS011;41837;55.700;37.984;2023-07-16T13:30:55;6.80;;;3.15;;
55931;SDS011;41837;55.700;37.984;2023-07-16T13:33:21;5.15;;;3.00;;
55931;SDS011;41837;55.700;37.984;2023-07-16T13:35:49;6.85;;;3.03;;
55931;SDS011;41837;55.700;37.984;2023-07-16T13:38:15;8.73;;;3.20;;
55931;SDS011;41837;55.700;37.984;2023-07-16T13:40:41;3.13;;;2.80;;
55931;SDS011;41837;55.700;37.984;2023-07-16T13:43:08;6.53;;;3.33;;
55931;SDS011;41837;55.700;37.984;2023-07-16T13:45:34;5.32;;;2.80;;
55931;SDS011;41837;55.700;37.984;2023-07-16T13:48:01;6.35;;;2.97;;
55931;SDS011;41837;55.700;37.984;2023-07-16T13:50:27;4.53;;;3.10;;
55931;SDS011;41837;55.700;37.984;2023-07-16T13:52:53;4.28;;;2.72;;
55931;SDS011;41837;55.700;37.984;2023-07-16T13:55:20;4.28;;;2.95;;
55931;SDS011;41837;55.700;37.984;2023-07-16T13:57:46;10.15;;;3.13;;
55931;SDS011;41837;55.700;37.984;2023-07-16T14:00:13;5.85;;;2.92;;
55931;SDS011;41837;55.700;37.984;2023-07-16T14:02:42;7.40;;;3.38;;
55931;SDS011;41837;55.700;37.984;2023-07-16T14:05:09;5.60;;;3.10;;
55931;SDS011;41837;55.700;37.984;2023-07-16T14:07:35;8.27;;;3.40;;
55931;SDS011;41837;55.700;37.984;2023-07-16T14:10:02;5.57;;;3.10;;
55931;SDS011;41837;55.700;37.984;2023-07-16T14:12:29;3.40;;;2.78;;
55931;SDS011;41837;55.700;37.984;2023-07-16T14:14:55;5.28;;;2.95;;
55931;SDS011;41837;55.700;37.984;2023-07-16T14:17:22;5.32;;;3.30;;
55931;SDS011;41837;55.700;37.984;2023-07-16T14:19:49;5.90;;;2.90;;
55931;SDS011;41837;55.700;37.984;2023-07-16T14:22:15;7.10;;;3.28;;
55931;SDS011;41837;55.700;37.984;2023-07-16T14:24:42;5.20;;;3.00;;
55931;SDS011;41837;55.700;37.984;2023-07-16T14:27:09;5.57;;;2.90;;
55931;SDS011;41837;55.700;37.984;2023-07-16T14:29:36;7.22;;;2.95;;
55931;SDS011;41837;55.700;37.984;2023-07-16T14:32:02;5.70;;;2.70;;
55931;SDS011;41837;55.700;37.984;2023-07-16T14:34:28;5.95;;;2.83;;
55931;SDS011;41837;55.700;37.984;2023-07-16T14:36:55;6.03;;;3.00;;
55931;SDS011;41837;55.700;37.984;2023-07-16T14:39:21;5.18;;;2.92;;